createdAt,value
2018-02-07T00:00:05.211Z,17.85
2018-02-07T00:02:32.891Z,17.42
2018-02-07T00:05:00.756Z,16.67
2018-02-07T00:07:28.430Z,16.30
2018-02-07T00:09:56.124Z,17.12
2018-02-07T00:12:23.842Z,16.45
2018-02-07T00:14:51.517Z,17.23
2018-02-07T00:17:19.230Z,16.92
2018-02-07T00:19:46.892Z,16.33
2018-02-07T00:22:14.566Z,17.05
2018-02-07T00:24:42.287Z,17.87
2018-02-07T00:27:09.967Z,16.75
2018-02-07T00:29:37.913Z,16.45
2018-02-07T00:32:05.590Z,17.30
2018-02-07T00:34:33.282Z,15.70
2018-02-07T00:37:00.979Z,15.02
2018-02-07T00:39:28.660Z,16.30
2018-02-07T00:41:56.726Z,16.10
2018-02-07T00:44:24.411Z,13.80
2018-02-07T00:46:52.100Z,16.50
2018-02-07T00:49:19.788Z,16.50
2018-02-07T00:51:47.472Z,16.08
2018-02-07T00:54:15.198Z,16.52
2018-02-07T00:56:42.867Z,16.27
2018-02-07T00:59:10.548Z,16.80
2018-02-07T01:01:38.252Z,16.20
2018-02-07T01:04:05.926Z,15.85
2018-02-07T01:06:33.631Z,16.35
2018-02-07T01:09:01.317Z,16.05
2018-02-07T01:11:29.003Z,15.00
2018-02-07T01:13:56.704Z,15.05
2018-02-07T01:16:24.400Z,16.83
2018-02-07T01:18:52.099Z,16.45
2018-02-07T01:21:19.788Z,16.50
2018-02-07T01:23:47.459Z,15.27
2018-02-07T01:26:15.148Z,17.35
2018-02-07T01:28:42.833Z,17.15
2018-02-07T01:31:10.557Z,16.15
2018-02-07T01:33:38.223Z,16.12
2018-02-07T01:36:05.904Z,16.08
2018-02-07T01:38:33.606Z,15.63
2018-02-07T01:41:01.281Z,15.27
2018-02-07T01:43:29.183Z,17.37
2018-02-07T01:45:56.872Z,17.27
2018-02-07T01:48:24.560Z,16.52
2018-02-07T01:50:52.265Z,15.57
2018-02-07T01:53:19.939Z,15.40
2018-02-07T01:55:47.807Z,15.68
2018-02-07T01:58:15.644Z,15.93
2018-02-07T02:00:43.307Z,15.85
2018-02-07T02:03:11.012Z,14.65
2018-02-07T02:05:38.684Z,16.33
2018-02-07T02:08:06.624Z,15.05
2018-02-07T02:10:34.307Z,15.48
2018-02-07T02:13:01.991Z,16.45
2018-02-07T02:15:29.691Z,15.60
2018-02-07T02:17:57.375Z,16.52
2018-02-07T02:20:25.240Z,15.10
2018-02-07T02:22:52.911Z,15.90
2018-02-07T02:25:20.568Z,15.77
2018-02-07T02:27:48.257Z,18.15
2018-02-07T02:30:15.970Z,15.43
2018-02-07T02:32:43.699Z,15.98
2018-02-07T02:35:11.467Z,14.02
2018-02-07T02:37:39.135Z,17.80
2018-02-07T02:40:06.856Z,15.30
2018-02-07T02:42:34.530Z,16.12
2018-02-07T02:45:02.487Z,17.02
2018-02-07T02:47:30.165Z,16.17
2018-02-07T02:49:57.838Z,16.42
2018-02-07T02:52:25.545Z,14.23
2018-02-07T02:54:53.203Z,14.73
2018-02-07T02:57:21.140Z,15.05
2018-02-07T02:59:48.817Z,16.12
2018-02-07T03:02:16.501Z,14.27
2018-02-07T03:04:44.203Z,15.60
2018-02-07T03:07:11.873Z,14.00
2018-02-07T03:09:39.923Z,15.80
2018-02-07T03:12:07.621Z,15.43
2018-02-07T03:14:35.297Z,15.50
2018-02-07T03:17:03.011Z,16.00
2018-02-07T03:19:30.687Z,15.38
2018-02-07T03:21:58.414Z,14.90
2018-02-07T03:24:26.092Z,14.80
2018-02-07T03:26:53.785Z,15.80
2018-02-07T03:29:21.488Z,14.38
2018-02-07T03:31:49.167Z,14.90
2018-02-07T03:34:17.008Z,16.42
2018-02-07T03:36:44.669Z,16.42
2018-02-07T03:39:12.362Z,16.70
2018-02-07T03:41:40.062Z,15.25
2018-02-07T03:44:07.742Z,15.02
2018-02-07T03:46:36.282Z,15.18
2018-02-07T03:49:03.957Z,15.77
2018-02-07T03:51:31.636Z,15.00
2018-02-07T03:53:59.335Z,15.50
2018-02-07T03:56:27.015Z,14.95
2018-02-07T03:58:54.898Z,17.02
2018-02-07T04:01:22.576Z,18.17
2018-02-07T04:03:50.261Z,16.23
2018-02-07T04:06:17.969Z,16.77
2018-02-07T04:08:45.652Z,16.58
2018-02-07T04:11:13.621Z,15.55
2018-02-07T04:13:41.325Z,16.50
2018-02-07T04:16:08.992Z,15.60
2018-02-07T04:18:36.762Z,15.88
2018-02-07T04:21:04.449Z,15.40
2018-02-07T04:23:32.756Z,13.68
2018-02-07T04:26:00.438Z,16.37
2018-02-07T04:28:28.174Z,15.35
2018-02-07T04:30:55.997Z,15.57
2018-02-07T04:33:23.684Z,16.27
2018-02-07T04:35:51.592Z,15.57
2018-02-07T04:38:19.287Z,17.92
2018-02-07T04:40:46.971Z,16.27
2018-02-07T04:43:14.703Z,17.05
2018-02-07T04:45:42.378Z,17.10
2018-02-07T04:48:10.314Z,17.62
2018-02-07T04:50:37.992Z,16.95
2018-02-07T04:53:05.655Z,16.77
2018-02-07T04:55:33.366Z,18.80
2018-02-07T04:58:01.215Z,16.73
2018-02-07T05:00:29.120Z,16.17
2018-02-07T05:02:56.828Z,16.50
2018-02-07T05:05:24.500Z,17.02
2018-02-07T05:07:52.203Z,16.35
2018-02-07T05:10:19.886Z,17.83
2018-02-07T05:12:47.790Z,15.00
2018-02-07T05:15:15.466Z,18.42
2018-02-07T05:17:43.143Z,17.37
2018-02-07T05:20:10.847Z,15.82
2018-02-07T05:22:38.540Z,17.17
2018-02-07T05:25:06.561Z,17.60
2018-02-07T05:27:34.323Z,17.67
2018-02-07T05:30:01.999Z,16.05
2018-02-07T05:32:29.689Z,17.10
2018-02-07T05:34:57.366Z,16.40
2018-02-07T05:37:25.281Z,15.63
2018-02-07T05:39:52.947Z,17.02
2018-02-07T05:42:20.699Z,16.27
2018-02-07T05:44:48.414Z,16.40
2018-02-07T05:47:16.095Z,16.25
2018-02-07T05:49:43.914Z,18.30
2018-02-07T05:52:11.599Z,16.95
2018-02-07T05:54:39.365Z,15.40
2018-02-07T05:57:07.076Z,16.05
2018-02-07T05:59:34.747Z,16.50
2018-02-07T06:02:02.608Z,18.65
2018-02-07T06:04:30.282Z,15.13
2018-02-07T06:06:57.963Z,14.73
2018-02-07T06:09:25.674Z,16.92
2018-02-07T06:11:53.338Z,16.58
2018-02-07T06:14:21.044Z,16.00
2018-02-07T06:16:48.766Z,16.80
2018-02-07T06:19:16.439Z,17.52
2018-02-07T06:21:44.147Z,15.40
2018-02-07T06:24:11.843Z,15.65
2018-02-07T06:26:39.566Z,16.27
2018-02-07T06:29:07.239Z,16.58
2018-02-07T06:31:34.917Z,17.10
2018-02-07T06:34:02.628Z,17.02
2018-02-07T06:36:30.339Z,15.15
2018-02-07T06:38:58.429Z,17.45
2018-02-07T06:41:26.111Z,17.30
2018-02-07T06:43:53.781Z,15.05
2018-02-07T06:46:21.478Z,18.77
2018-02-07T06:48:49.173Z,16.98
2018-02-07T06:51:17.173Z,20.95
2018-02-07T06:53:44.835Z,16.52
2018-02-07T06:56:13.996Z,18.40
2018-02-07T06:58:41.712Z,17.58
2018-02-07T07:01:09.376Z,17.40
2018-02-07T07:03:37.423Z,17.92
2018-02-07T07:06:05.107Z,17.55
2018-02-07T07:08:32.790Z,16.27
2018-02-07T07:11:00.525Z,16.58
2018-02-07T07:13:28.221Z,16.85
2018-02-07T07:15:55.937Z,17.05
2018-02-07T07:18:23.622Z,17.00
2018-02-07T07:20:51.329Z,18.80
2018-02-07T07:23:19.044Z,17.70
2018-02-07T07:25:46.726Z,20.65
2018-02-07T07:28:14.985Z,16.35
2018-02-07T07:30:42.671Z,18.85
2018-02-07T07:33:10.386Z,16.52
2018-02-07T07:35:38.508Z,17.15
2018-02-07T07:38:06.196Z,17.87
2018-02-07T07:40:34.211Z,17.45
2018-02-07T07:43:01.892Z,17.33
2018-02-07T07:45:29.566Z,17.60
2018-02-07T07:47:57.264Z,19.02
2018-02-07T07:50:24.939Z,17.15
2018-02-07T07:52:52.683Z,17.77
2018-02-07T07:55:20.374Z,17.62
2018-02-07T07:57:48.036Z,19.70
2018-02-07T08:00:15.754Z,17.70
2018-02-07T08:02:43.426Z,17.85
2018-02-07T08:05:11.342Z,17.23
2018-02-07T08:07:39.023Z,17.45
2018-02-07T08:10:06.685Z,18.90
2018-02-07T08:12:34.372Z,15.82
2018-02-07T08:15:02.046Z,18.08
2018-02-07T08:17:29.972Z,17.58
2018-02-07T08:19:57.644Z,16.45
2018-02-07T08:22:25.331Z,18.80
2018-02-07T08:24:53.048Z,17.55
2018-02-07T08:27:20.721Z,17.87
2018-02-07T08:29:48.581Z,17.83
2018-02-07T08:32:16.346Z,16.90
2018-02-07T08:34:44.008Z,19.12
2018-02-07T08:37:11.716Z,19.98
2018-02-07T08:39:39.395Z,18.00
2018-02-07T08:42:07.125Z,17.60
2018-02-07T08:44:34.797Z,17.87
2018-02-07T08:47:02.519Z,17.83
2018-02-07T08:49:30.214Z,17.62
2018-02-07T08:51:57.903Z,17.52
2018-02-07T08:54:25.610Z,16.50
2018-02-07T08:56:53.306Z,18.92
2018-02-07T08:59:21.623Z,17.35
2018-02-07T09:01:49.377Z,19.25
2018-02-07T09:04:17.053Z,18.70
2018-02-07T09:06:45.143Z,18.15
2018-02-07T09:09:12.858Z,21.30
2018-02-07T09:11:40.546Z,17.60
2018-02-07T09:14:08.249Z,17.70
2018-02-07T09:16:35.935Z,18.65
2018-02-07T09:19:04.281Z,17.98
2018-02-07T09:21:32.079Z,18.35
2018-02-07T09:23:59.917Z,19.15
2018-02-07T09:26:27.639Z,18.20
2018-02-07T09:28:55.323Z,18.65
2018-02-07T09:31:23.109Z,19.92
2018-02-07T09:33:50.815Z,18.25
2018-02-07T09:36:18.505Z,18.30
2018-02-07T09:38:46.200Z,18.77
2018-02-07T09:41:13.882Z,17.27
2018-02-07T09:43:41.752Z,17.35
2018-02-07T09:46:09.430Z,19.42
2018-02-07T09:48:37.112Z,20.15
2018-02-07T09:51:04.819Z,20.08
2018-02-07T09:53:32.496Z,17.65
2018-02-07T09:56:00.503Z,20.73
2018-02-07T09:58:28.184Z,19.48
2018-02-07T10:00:55.879Z,19.90
2018-02-07T10:03:23.592Z,18.62
2018-02-07T10:05:51.648Z,17.87
2018-02-07T10:08:19.454Z,18.08
2018-02-07T10:10:47.136Z,18.52
2018-02-07T10:13:15.124Z,20.95
2018-02-07T10:15:42.915Z,20.37
2018-02-07T10:18:10.581Z,19.35
2018-02-07T10:20:38.708Z,19.08
2018-02-07T10:23:06.864Z,20.23
2018-02-07T10:25:35.018Z,19.15
2018-02-07T10:28:02.767Z,19.10
2018-02-07T10:30:30.475Z,19.05
2018-02-07T10:32:58.335Z,18.85
2018-02-07T10:35:26.015Z,20.67
2018-02-07T10:37:53.714Z,19.42
2018-02-07T10:40:21.435Z,17.90
2018-02-07T10:42:49.131Z,18.25
2018-02-07T10:45:17.263Z,20.58
2018-02-07T10:47:44.943Z,20.60
2018-02-07T10:50:12.615Z,20.70
2018-02-07T10:52:40.769Z,20.48
2018-02-07T10:55:08.637Z,20.02
2018-02-07T10:57:37.923Z,19.92
2018-02-07T11:00:05.760Z,18.25
2018-02-07T11:02:33.443Z,19.90
2018-02-07T11:05:01.155Z,20.50
2018-02-07T11:07:28.849Z,19.95
2018-02-07T11:09:56.746Z,19.05
2018-02-07T11:12:24.425Z,21.65
2018-02-07T11:14:52.247Z,19.50
2018-02-07T11:17:19.933Z,19.95
2018-02-07T11:19:48.440Z,19.80
2018-02-07T11:22:16.148Z,20.08
2018-02-07T11:24:44.167Z,21.92
2018-02-07T11:27:11.855Z,19.70
2018-02-07T11:29:39.564Z,20.70
2018-02-07T11:32:07.266Z,19.17
2018-02-07T11:34:35.269Z,18.52
2018-02-07T11:37:02.962Z,20.70
2018-02-07T11:39:30.666Z,19.67
2018-02-07T11:41:58.365Z,20.55
2018-02-07T11:44:26.071Z,19.00
2018-02-07T11:46:53.782Z,20.10
2018-02-07T11:49:21.455Z,20.52
2018-02-07T11:51:49.135Z,19.23
2018-02-07T11:54:17.085Z,21.55
2018-02-07T11:56:44.767Z,19.05
2018-02-07T11:59:13.079Z,19.98
2018-02-07T12:01:40.766Z,21.25
2018-02-07T12:04:08.451Z,20.52
2018-02-07T12:06:36.155Z,18.60
2018-02-07T12:09:04.020Z,22.70
2018-02-07T12:11:32.006Z,19.70
2018-02-07T12:13:59.687Z,20.08
2018-02-07T12:16:27.390Z,19.60
2018-02-07T12:18:55.095Z,20.42
2018-02-07T12:21:22.826Z,20.92
2018-02-07T12:23:51.421Z,21.80
2018-02-07T12:26:19.115Z,19.92
2018-02-07T12:28:46.862Z,19.58
2018-02-07T12:31:14.581Z,20.98
2018-02-07T12:33:42.261Z,20.50
2018-02-07T12:36:09.979Z,21.17
2018-02-07T12:38:37.727Z,21.83
2018-02-07T12:41:05.422Z,18.05
2018-02-07T12:43:33.122Z,22.13
2018-02-07T12:46:00.801Z,17.70
2018-02-07T12:48:28.795Z,21.27
2018-02-07T12:50:56.526Z,18.45
2018-02-07T12:53:24.412Z,18.85
2018-02-07T12:55:52.594Z,19.80
2018-02-07T12:58:20.267Z,19.75
2018-02-07T13:00:48.026Z,19.85
2018-02-07T13:03:15.711Z,20.80
2018-02-07T13:05:43.410Z,18.35
2018-02-07T13:08:11.130Z,21.85
2018-02-07T13:10:38.835Z,20.33
2018-02-07T13:13:07.022Z,19.80
2018-02-07T13:15:34.702Z,16.75
2018-02-07T13:18:02.368Z,20.55
2018-02-07T13:20:30.080Z,18.67
2018-02-07T13:22:58.158Z,19.10
2018-02-07T13:25:26.215Z,19.05
2018-02-07T13:27:53.900Z,19.70
2018-02-07T13:30:21.580Z,18.15
2018-02-07T13:32:49.291Z,18.85
2018-02-07T13:35:16.993Z,17.65
2018-02-07T13:37:45.444Z,18.70
2018-02-07T13:40:13.140Z,19.95
2018-02-07T13:42:40.861Z,20.02
2018-02-07T13:45:08.576Z,17.65
2018-02-07T13:47:36.274Z,19.62
2018-02-07T13:50:03.994Z,19.15
2018-02-07T13:52:31.704Z,19.05
2018-02-07T13:54:59.654Z,20.67
2018-02-07T13:57:27.347Z,18.83
2018-02-07T13:59:54.956Z,18.57
2018-02-07T14:02:22.885Z,17.62
2018-02-07T14:04:50.571Z,20.02
2018-02-07T14:07:18.191Z,18.67
2018-02-07T14:09:45.897Z,19.67
2018-02-07T14:12:13.597Z,21.48
2018-02-07T14:14:41.882Z,20.30
2018-02-07T14:17:09.563Z,18.77
2018-02-07T14:19:37.518Z,18.02
2018-02-07T14:22:05.213Z,19.50
2018-02-07T14:24:33.345Z,20.10
2018-02-07T14:27:00.983Z,19.23
2018-02-07T14:29:28.576Z,20.57
2018-02-07T14:31:56.407Z,18.17
2018-02-07T14:34:24.000Z,18.20
2018-02-07T14:36:51.599Z,17.70
2018-02-07T14:39:19.228Z,19.80
2018-02-07T14:42:01.023Z,18.93
2018-02-07T14:44:29.982Z,19.63
2018-02-07T14:46:57.605Z,18.00
2018-02-07T14:49:25.291Z,20.12
2018-02-07T14:51:52.911Z,19.10
2018-02-07T14:54:20.959Z,18.23
2018-02-07T14:56:48.718Z,18.52
2018-02-07T14:59:16.390Z,18.77
2018-02-07T15:01:44.009Z,18.80
2018-02-07T15:04:11.787Z,18.25
2018-02-07T15:06:39.481Z,19.50
2018-02-07T15:09:07.511Z,17.98
2018-02-07T15:11:35.182Z,17.73
2018-02-07T15:14:02.912Z,18.20
2018-02-07T15:16:30.731Z,18.48
2018-02-07T15:18:58.431Z,17.33
2018-02-07T15:21:27.003Z,17.65
2018-02-07T15:23:55.063Z,18.67
2018-02-07T15:26:22.728Z,18.02
2018-02-07T15:28:50.368Z,20.30
2018-02-07T15:31:18.189Z,19.42
2018-02-07T15:33:45.903Z,17.17
2018-02-07T15:36:13.497Z,19.43
2018-02-07T15:38:41.208Z,19.83
2018-02-07T15:41:08.823Z,19.03
2018-02-07T15:43:36.495Z,19.48
2018-02-07T15:46:04.533Z,17.27
2018-02-07T15:48:32.223Z,17.45
2018-02-07T15:50:59.921Z,18.20
2018-02-07T15:53:27.705Z,16.52
2018-02-07T15:55:55.438Z,18.97
2018-02-07T15:58:23.174Z,18.62
2018-02-07T16:00:50.918Z,19.37
2018-02-07T16:03:18.601Z,17.60
2018-02-07T16:05:46.326Z,19.27
2018-02-07T16:08:14.003Z,19.70
2018-02-07T16:10:41.853Z,17.60
2018-02-07T16:13:09.551Z,19.00
2018-02-07T16:15:37.251Z,19.08
2018-02-07T16:18:05.020Z,19.40
2018-02-07T16:20:32.703Z,18.55
2018-02-07T16:23:01.075Z,19.20
2018-02-07T16:25:29.236Z,18.20
2018-02-07T16:27:56.915Z,22.42
2018-02-07T16:30:24.600Z,19.02
2018-02-07T16:32:52.372Z,21.12
2018-02-07T16:35:20.305Z,21.48
2018-02-07T16:37:47.980Z,22.92
2018-02-07T16:40:15.644Z,21.10
2018-02-07T16:42:43.361Z,19.33
2018-02-07T16:45:11.046Z,20.55
2018-02-07T16:47:38.984Z,23.08
2018-02-07T16:50:06.646Z,21.35
2018-02-07T16:52:34.311Z,21.27
2018-02-07T16:55:02.435Z,21.45
2018-02-07T16:57:30.119Z,20.58
2018-02-07T16:59:58.318Z,22.73
2018-02-07T17:02:26.011Z,23.10
2018-02-07T17:04:53.707Z,21.10
2018-02-07T17:07:21.403Z,21.42
2018-02-07T17:09:49.087Z,20.00
2018-02-07T17:12:17.188Z,22.30
2018-02-07T17:14:44.874Z,20.62
2018-02-07T17:17:12.556Z,21.15
2018-02-07T17:19:40.248Z,19.67
2018-02-07T17:22:07.923Z,21.77
2018-02-07T17:24:36.223Z,22.80
2018-02-07T17:27:03.903Z,20.95
2018-02-07T17:29:31.577Z,22.02
2018-02-07T17:31:59.264Z,21.70
2018-02-07T17:34:26.973Z,23.17
2018-02-07T17:36:54.823Z,22.70
2018-02-07T17:39:22.488Z,21.75
2018-02-07T17:41:50.159Z,22.67
2018-02-07T17:44:17.875Z,25.00
2018-02-07T17:46:45.552Z,20.85
2018-02-07T17:49:13.256Z,21.92
2018-02-07T17:51:40.938Z,21.92
2018-02-07T17:54:08.628Z,20.85
2018-02-07T17:56:36.350Z,21.17
2018-02-07T17:59:04.015Z,20.10
2018-02-07T18:01:31.859Z,22.10
2018-02-07T18:03:59.547Z,20.75
2018-02-07T18:06:27.225Z,20.80
2018-02-07T18:08:54.928Z,23.52
2018-02-07T18:11:22.614Z,22.80
2018-02-07T18:13:50.304Z,22.98
2018-02-07T18:16:17.985Z,19.73
2018-02-07T18:18:45.912Z,22.27
2018-02-07T18:21:13.669Z,21.65
2018-02-07T18:23:41.347Z,21.95
2018-02-07T18:26:09.029Z,23.33
2018-02-07T18:28:36.707Z,21.10
2018-02-07T18:31:04.400Z,22.35
2018-02-07T18:33:32.075Z,21.70
2018-02-07T18:36:00.079Z,21.90
2018-02-07T18:38:27.834Z,22.55
2018-02-07T18:40:55.503Z,21.60
2018-02-07T18:43:23.221Z,22.70
2018-02-07T18:45:50.920Z,20.42
2018-02-07T18:48:19.111Z,20.60
2018-02-07T18:50:46.781Z,22.52
2018-02-07T18:53:14.819Z,20.70
2018-02-07T18:55:42.500Z,22.33
2018-02-07T18:58:10.404Z,21.48
2018-02-07T19:00:38.128Z,21.42
2018-02-07T19:03:05.823Z,21.35
2018-02-07T19:05:34.452Z,20.90
2018-02-07T19:08:02.350Z,22.20
2018-02-07T19:10:30.763Z,20.98
2018-02-07T19:12:58.810Z,21.55
2018-02-07T19:15:26.684Z,22.27
2018-02-07T19:17:54.502Z,21.52
2018-02-07T19:20:22.199Z,22.85
2018-02-07T19:22:49.896Z,22.92
2018-02-07T19:25:17.630Z,22.58
2018-02-07T19:27:45.350Z,21.87
2018-02-07T19:30:13.044Z,23.52
2018-02-07T19:32:40.746Z,23.80
2018-02-07T19:35:08.489Z,22.50
2018-02-07T19:37:36.161Z,22.80
2018-02-07T19:40:04.112Z,20.52
2018-02-07T19:42:32.044Z,22.23
2018-02-07T19:44:59.722Z,21.75
2018-02-07T19:47:27.442Z,21.35
2018-02-07T19:49:55.126Z,21.98
2018-02-07T19:52:22.827Z,21.48
2018-02-07T19:54:50.510Z,22.33
2018-02-07T19:57:18.335Z,23.98
2018-02-07T19:59:46.016Z,24.77
2018-02-07T20:02:13.736Z,21.67
2018-02-07T20:04:41.436Z,20.90
2018-02-07T20:07:09.120Z,21.70
2018-02-07T20:09:36.829Z,21.55
2018-02-07T20:12:04.513Z,21.70
2018-02-07T20:14:32.587Z,21.85
2018-02-07T20:17:00.267Z,22.90
2018-02-07T20:19:28.004Z,22.98
2018-02-07T20:21:55.710Z,21.33
2018-02-07T20:24:23.397Z,23.10
2018-02-07T20:26:51.097Z,22.05
2018-02-07T20:29:18.779Z,23.42
2018-02-07T20:31:46.489Z,20.92
2018-02-07T20:34:14.348Z,23.17
2018-02-07T20:36:42.075Z,23.02
2018-02-07T20:39:09.764Z,24.15
2018-02-07T20:41:37.442Z,24.10
2018-02-07T20:44:05.143Z,23.65
2018-02-07T20:46:32.836Z,22.87
2018-02-07T20:49:00.555Z,23.27
2018-02-07T20:51:28.237Z,23.05
2018-02-07T20:53:55.945Z,20.35
2018-02-07T20:56:23.635Z,23.62
2018-02-07T20:58:51.326Z,22.27
2018-02-07T21:01:19.025Z,23.48
2018-02-07T21:03:46.704Z,24.12
2018-02-07T21:06:14.436Z,23.35
2018-02-07T21:08:42.120Z,24.30
2018-02-07T21:11:09.834Z,24.63
2018-02-07T21:13:37.534Z,25.52
2018-02-07T21:16:04.942Z,26.58
2018-02-07T21:18:32.612Z,24.52
2018-02-07T21:21:00.286Z,25.23
2018-02-07T21:23:27.996Z,25.33
2018-02-07T21:25:55.706Z,28.40
2018-02-07T21:28:23.413Z,24.77
2018-02-07T21:30:51.083Z,27.27
2018-02-07T21:33:18.865Z,27.45
2018-02-07T21:35:46.555Z,26.27
2018-02-07T21:38:14.233Z,28.65
2018-02-07T21:40:41.933Z,28.40
2018-02-07T21:43:09.973Z,25.45
2018-02-07T21:45:37.685Z,28.23
2018-02-07T21:48:05.351Z,28.10
2018-02-07T21:50:33.239Z,26.73
2018-02-07T21:53:00.914Z,28.92
2018-02-07T21:55:28.635Z,26.80
2018-02-07T21:57:56.675Z,27.30
2018-02-07T22:00:25.096Z,29.12
2018-02-07T22:02:52.794Z,31.05
2018-02-07T22:05:20.469Z,31.17
2018-02-07T22:07:48.305Z,28.05
2018-02-07T22:10:15.971Z,27.35
2018-02-07T22:12:43.719Z,28.62
2018-02-07T22:15:11.430Z,28.48
2018-02-07T22:17:39.107Z,27.23
2018-02-07T22:20:06.871Z,28.05
2018-02-07T22:22:34.590Z,24.95
2018-02-07T22:25:02.470Z,28.17
2018-02-07T22:27:30.145Z,27.75
2018-02-07T22:29:57.843Z,27.80
2018-02-07T22:32:25.546Z,30.17
2018-02-07T22:34:53.211Z,29.42
2018-02-07T22:37:20.903Z,31.40
2018-02-07T22:39:48.585Z,26.42
2018-02-07T22:42:16.488Z,29.15
2018-02-07T22:44:44.153Z,31.33
2018-02-07T22:47:11.821Z,28.77
2018-02-07T22:49:39.512Z,31.75
2018-02-07T22:52:07.179Z,29.87
2018-02-07T22:54:34.872Z,27.85
2018-02-07T22:57:02.535Z,30.73
2018-02-07T22:59:30.640Z,28.50
2018-02-07T23:01:58.307Z,29.25
2018-02-07T23:04:25.999Z,27.23
2018-02-07T23:06:53.708Z,29.95
2018-02-07T23:09:21.388Z,30.88
2018-02-07T23:11:49.084Z,29.83
2018-02-07T23:14:16.766Z,29.23
2018-02-07T23:16:44.491Z,28.45
2018-02-07T23:19:12.169Z,30.40
2018-02-07T23:21:39.839Z,29.37
2018-02-07T23:24:07.540Z,29.30
2018-02-07T23:26:35.215Z,29.92
2018-02-07T23:29:02.924Z,28.75
2018-02-07T23:31:30.605Z,28.87
2018-02-07T23:33:58.531Z,29.75
2018-02-07T23:36:26.215Z,31.20
2018-02-07T23:38:53.909Z,29.33
2018-02-07T23:41:21.596Z,29.60
2018-02-07T23:43:49.276Z,30.02
2018-02-07T23:46:16.978Z,31.48
2018-02-07T23:48:44.662Z,31.98
2018-02-07T23:51:12.358Z,30.73
2018-02-07T23:53:40.061Z,28.83
2018-02-07T23:56:07.728Z,29.98
2018-02-07T23:58:35.449Z,29.10
